createdAt,value
2018-12-17T00:00:36.778Z,100799.17
2018-12-17T00:03:05.296Z,100796.42
2018-12-17T00:05:33.960Z,100798.97
2018-12-17T00:08:02.284Z,100798.98
2018-12-17T00:10:30.715Z,100799.30
2018-12-17T00:12:59.181Z,100802.36
2018-12-17T00:15:27.479Z,100799.84
2018-12-17T00:17:55.782Z,100802.91
2018-12-17T00:20:24.090Z,100806.06
2018-12-17T00:22:52.406Z,100803.28
2018-12-17T00:25:20.700Z,100809.04
2018-12-17T00:27:49.492Z,100804.68
2018-12-17T00:30:17.785Z,100803.97
2018-12-17T00:32:46.113Z,100803.45
2018-12-17T00:35:14.416Z,100803.05
2018-12-17T00:37:42.723Z,100806.50
2018-12-17T00:40:11.378Z,100807.50
2018-12-17T00:42:39.737Z,100807.36
2018-12-17T00:45:08.298Z,100801.59
2018-12-17T00:47:36.914Z,100796.98
2018-12-17T00:50:05.865Z,100797.91
2018-12-17T00:52:34.279Z,100797.97
2018-12-17T00:55:02.597Z,100799.84
2018-12-17T00:57:31.538Z,100795.45
2018-12-17T01:00:00.804Z,100796.00
2018-12-17T01:02:29.094Z,100796.14
2018-12-17T01:04:57.419Z,100794.61
2018-12-17T01:07:27.676Z,100794.84
2018-12-17T01:09:56.125Z,100801.20
2018-12-17T01:12:24.432Z,100796.28
2018-12-17T01:14:52.724Z,100803.64
2018-12-17T01:17:21.130Z,100796.12
2018-12-17T01:19:49.432Z,100795.42
2018-12-17T01:22:18.034Z,100800.28
2018-12-17T01:24:46.326Z,100802.20
2018-12-17T01:27:14.662Z,100804.19
2018-12-17T01:29:43.148Z,100806.12
2018-12-17T01:32:11.534Z,100816.56
2018-12-17T01:34:39.867Z,100816.08
2018-12-17T01:37:08.173Z,100822.64
2018-12-17T01:39:36.485Z,100825.02
2018-12-17T01:42:04.899Z,100822.09
2018-12-17T01:44:33.186Z,100823.02
2018-12-17T01:47:01.528Z,100809.34
2018-12-17T01:49:29.813Z,100822.16
2018-12-17T01:51:58.462Z,100815.39
2018-12-17T01:54:27.184Z,100812.51
2018-12-17T01:56:55.461Z,100813.71
2018-12-17T01:59:23.786Z,100802.81
2018-12-17T02:01:52.183Z,100809.11
2018-12-17T02:04:21.021Z,100811.89
2018-12-17T02:06:50.523Z,100802.20
2018-12-17T02:09:19.018Z,100810.48
2018-12-17T02:11:47.331Z,100808.11
2018-12-17T02:14:15.813Z,100814.09
2018-12-17T02:16:44.465Z,100810.41
2018-12-17T02:19:13.473Z,100809.63
2018-12-17T02:21:41.778Z,100813.78
2018-12-17T02:24:10.278Z,100825.16
2018-12-17T02:26:38.841Z,100829.00
2018-12-17T02:29:07.557Z,100833.54
2018-12-17T02:31:36.492Z,100834.78
2018-12-17T02:34:04.865Z,100841.13
2018-12-17T02:36:34.123Z,100843.23
2018-12-17T02:39:02.653Z,100854.42
2018-12-17T02:41:30.928Z,100861.05
2018-12-17T02:43:59.616Z,100867.41
2018-12-17T02:46:27.901Z,100873.33
2018-12-17T02:48:56.217Z,100867.56
2018-12-17T02:51:24.504Z,100869.80
2018-12-17T02:53:52.796Z,100870.55
2018-12-17T02:56:21.085Z,100875.26
2018-12-17T02:58:49.429Z,100878.47
2018-12-17T03:01:17.722Z,100879.00
2018-12-17T03:03:46.077Z,100885.53
2018-12-17T03:06:14.360Z,100878.63
2018-12-17T03:08:42.786Z,100875.88
2018-12-17T03:11:11.082Z,100878.77
2018-12-17T03:13:39.401Z,100882.41
2018-12-17T03:16:07.723Z,100879.69
2018-12-17T03:18:36.032Z,100872.78
2018-12-17T03:21:04.324Z,100873.70
2018-12-17T03:23:32.628Z,100874.94
2018-12-17T03:26:00.935Z,100868.73
2018-12-17T03:28:29.307Z,100868.56
2018-12-17T03:30:57.639Z,100870.94
2018-12-17T03:33:25.930Z,100873.64
2018-12-17T03:35:54.569Z,100868.66
2018-12-17T03:38:22.958Z,100872.41
2018-12-17T03:40:51.438Z,100874.88
2018-12-17T03:43:19.890Z,100878.92
2018-12-17T03:45:48.212Z,100873.48
2018-12-17T03:48:16.501Z,100867.02
2018-12-17T03:50:44.807Z,100883.53
2018-12-17T03:53:13.128Z,100882.67
2018-12-17T03:55:41.430Z,100890.10
2018-12-17T03:58:09.718Z,100883.13
2018-12-17T04:00:38.072Z,100888.73
2018-12-17T04:03:06.436Z,100885.20
2018-12-17T04:05:35.042Z,100882.88
2018-12-17T04:08:04.116Z,100883.42
2018-12-17T04:10:32.420Z,100885.56
2018-12-17T04:13:01.026Z,100881.89
2018-12-17T04:15:29.450Z,100886.52
2018-12-17T04:17:57.770Z,100890.72
2018-12-17T04:20:26.475Z,100891.04
2018-12-17T04:22:55.133Z,100893.02
2018-12-17T04:25:23.436Z,100893.55
2018-12-17T04:27:51.776Z,100889.99
2018-12-17T04:30:20.352Z,100886.52
2018-12-17T04:32:48.703Z,100879.36
2018-12-17T04:35:17.337Z,100883.20
2018-12-17T04:37:45.673Z,100891.52
2018-12-17T04:40:13.988Z,100888.97
2018-12-17T04:42:42.327Z,100894.45
2018-12-17T04:45:10.628Z,100891.61
2018-12-17T04:47:38.945Z,100899.60
2018-12-17T04:50:07.380Z,100894.98
2018-12-17T04:52:36.565Z,100885.16
2018-12-17T04:55:05.387Z,100895.91
2018-12-17T04:57:34.872Z,100890.49
2018-12-17T05:00:04.042Z,100894.50
2018-12-17T05:02:32.329Z,100898.50
2018-12-17T05:05:00.930Z,100915.63
2018-12-17T05:07:29.246Z,100919.47
2018-12-17T05:09:57.605Z,100922.25
2018-12-17T05:12:26.655Z,100919.16
2018-12-17T05:14:54.922Z,100920.88
2018-12-17T05:17:23.298Z,100926.02
2018-12-17T05:19:51.619Z,100923.79
2018-12-17T05:22:19.994Z,100924.11
2018-12-17T05:24:48.623Z,100926.62
2018-12-17T05:27:17.224Z,100930.65
2018-12-17T05:29:45.539Z,100937.94
2018-12-17T05:32:13.857Z,100943.86
2018-12-17T05:34:42.140Z,100945.31
2018-12-17T05:37:10.627Z,100952.09
2018-12-17T05:39:38.967Z,100942.02
2018-12-17T05:42:07.537Z,100945.39
2018-12-17T05:44:36.050Z,100953.81
2018-12-17T05:47:05.060Z,100951.00
2018-12-17T05:49:33.617Z,100957.91
2018-12-17T05:52:01.986Z,100965.61
2018-12-17T05:54:30.269Z,100965.68
2018-12-17T05:56:58.645Z,100961.21
2018-12-17T05:59:28.672Z,100958.56
2018-12-17T06:01:57.232Z,100960.48
2018-12-17T06:04:25.555Z,100967.75
2018-12-17T06:06:53.866Z,100970.43
2018-12-17T06:09:22.587Z,100966.95
2018-12-17T06:11:51.040Z,100958.36
2018-12-17T06:14:19.602Z,100969.88
2018-12-17T06:16:48.099Z,100966.89
2018-12-17T06:19:16.400Z,100977.66
2018-12-17T06:21:44.715Z,100974.35
2018-12-17T06:24:13.346Z,100982.09
2018-12-17T06:26:41.652Z,100986.28
2018-12-17T06:29:09.943Z,100987.73
2018-12-17T06:31:38.345Z,100995.17
2018-12-17T06:34:06.669Z,100990.94
2018-12-17T06:36:34.993Z,100987.58
2018-12-17T06:39:06.348Z,100982.89
2018-12-17T06:41:34.649Z,100991.12
2018-12-17T06:44:02.946Z,100993.05
2018-12-17T06:46:31.333Z,100996.12
2018-12-17T06:49:00.003Z,100991.73
2018-12-17T06:51:28.677Z,100997.20
2018-12-17T06:53:56.966Z,101001.89
2018-12-17T06:56:25.276Z,101001.47
2018-12-17T06:58:53.585Z,101009.24
2018-12-17T07:01:21.867Z,101013.66
2018-12-17T07:03:50.169Z,101019.47
2018-12-17T07:06:18.598Z,101018.08
2018-12-17T07:08:47.239Z,101021.74
2018-12-17T07:11:15.542Z,101023.87
2018-12-17T07:13:43.860Z,101020.98
2018-12-17T07:16:12.458Z,101028.22
2018-12-17T07:18:41.150Z,101025.55
2018-12-17T07:21:09.385Z,101033.92
2018-12-17T07:23:37.689Z,101034.55
2018-12-17T07:26:06.461Z,101038.92
2018-12-17T07:28:34.782Z,101043.91
2018-12-17T07:31:03.076Z,101052.52
2018-12-17T07:33:31.661Z,101053.37
2018-12-17T07:36:00.087Z,101061.30
2018-12-17T07:38:28.645Z,101069.20
2018-12-17T07:40:57.225Z,101078.16
2018-12-17T07:43:26.380Z,101079.95
2018-12-17T07:45:54.899Z,101082.39
2018-12-17T07:48:23.168Z,101087.86
2018-12-17T07:50:51.833Z,101095.92
2018-12-17T07:53:20.145Z,101095.29
2018-12-17T07:55:48.437Z,101091.17
2018-12-17T07:58:16.744Z,101098.83
2018-12-17T08:00:45.118Z,101100.28
2018-12-17T08:03:13.420Z,101092.23
2018-12-17T08:05:41.738Z,101098.55
2018-12-17T08:08:10.106Z,101099.05
2018-12-17T08:10:38.420Z,101107.22
2018-12-17T08:13:07.085Z,101112.76
2018-12-17T08:15:35.438Z,101116.81
2018-12-17T08:18:14.284Z,101120.53
2018-12-17T08:20:42.611Z,101124.84
2018-12-17T08:23:10.914Z,101129.83
2018-12-17T08:25:39.225Z,101131.70
2018-12-17T08:28:07.614Z,101132.30
2018-12-17T08:30:35.920Z,101145.61
2018-12-17T08:33:04.597Z,101142.39
2018-12-17T08:35:32.903Z,101148.38
2018-12-17T08:38:01.508Z,101141.30
2018-12-17T08:40:29.894Z,101153.39
2018-12-17T08:42:58.172Z,101150.14
2018-12-17T08:45:26.585Z,101148.16
2018-12-17T08:47:55.065Z,101145.02
2018-12-17T08:50:23.636Z,101155.55
2018-12-17T08:52:51.921Z,101155.31
2018-12-17T08:55:20.234Z,101159.50
2018-12-17T08:57:48.534Z,101155.03
2018-12-17T09:00:16.835Z,101163.23
2018-12-17T09:02:45.125Z,101166.30
2018-12-17T09:05:13.428Z,101167.75
2018-12-17T09:07:41.865Z,101171.60
2018-12-17T09:10:10.156Z,101164.23
2018-12-17T09:12:38.468Z,101168.65
2018-12-17T09:15:07.092Z,101172.59
2018-12-17T09:17:35.397Z,101177.19
2018-12-17T09:20:05.918Z,101172.90
2018-12-17T09:22:34.640Z,101176.47
2018-12-17T09:25:03.489Z,101176.27
2018-12-17T09:27:31.793Z,101174.95
2018-12-17T09:30:00.255Z,101177.58
2018-12-17T09:32:28.556Z,101177.73
2018-12-17T09:34:56.872Z,101190.58
2018-12-17T09:37:25.472Z,101194.16
2018-12-17T09:39:54.005Z,101189.43
2018-12-17T09:42:22.304Z,101200.16
2018-12-17T09:44:50.602Z,101202.80
2018-12-17T09:47:18.888Z,101209.83
2018-12-17T09:49:47.359Z,101207.98
2018-12-17T09:52:15.620Z,101208.23
2018-12-17T09:54:43.922Z,101203.37
2018-12-17T09:57:12.185Z,101218.73
2018-12-17T09:59:40.781Z,101212.83
2018-12-17T10:02:09.052Z,101216.67
2018-12-17T10:04:37.360Z,101214.79
2018-12-17T10:07:05.653Z,101203.63
2018-12-17T10:09:33.965Z,101209.75
2018-12-17T10:12:02.248Z,101204.41
2018-12-17T10:14:30.545Z,101211.84
2018-12-17T10:16:58.888Z,101211.69
2018-12-17T10:19:27.183Z,101206.71
2018-12-17T10:21:55.450Z,101212.51
2018-12-17T10:24:23.848Z,101212.23
2018-12-17T10:26:52.144Z,101209.06
2018-12-17T10:29:20.406Z,101202.38
2018-12-17T10:31:48.702Z,101211.98
2018-12-17T10:34:16.976Z,101213.55
2018-12-17T10:36:45.273Z,101215.16
2018-12-17T10:39:15.065Z,101220.70
2018-12-17T10:41:43.641Z,101208.29
2018-12-17T10:44:11.912Z,101213.09
2018-12-17T10:46:40.281Z,101217.70
2018-12-17T10:49:08.634Z,101215.92
2018-12-17T10:51:36.927Z,101208.69
2018-12-17T10:54:05.192Z,101212.63
2018-12-17T10:56:33.488Z,101213.00
2018-12-17T10:59:02.082Z,101213.28
2018-12-17T11:01:34.252Z,101208.02
2018-12-17T11:04:04.493Z,101147.17
2018-12-17T11:06:32.863Z,101213.17
2018-12-17T11:09:02.350Z,101211.77
2018-12-17T11:11:30.949Z,101211.69
2018-12-17T11:13:59.256Z,101215.52
2018-12-17T11:16:27.693Z,101219.00
2018-12-17T11:18:55.974Z,101211.48
2018-12-17T11:21:24.246Z,101213.36
2018-12-17T11:23:52.533Z,101214.17
2018-12-17T11:26:21.446Z,101215.77
2018-12-17T11:28:49.752Z,101223.20
2018-12-17T11:31:18.029Z,101220.94
2018-12-17T11:33:46.325Z,101216.78
2018-12-17T11:36:14.662Z,101221.78
2018-12-17T11:38:44.026Z,101230.87
2018-12-17T11:41:12.348Z,101226.63
2018-12-17T11:43:43.783Z,101226.25
2018-12-17T11:46:10.886Z,101214.59
2018-12-17T11:48:39.866Z,101214.97
2018-12-17T11:51:08.165Z,101222.17
2018-12-17T11:53:36.484Z,101217.23
2018-12-17T11:56:05.272Z,101221.48
2018-12-17T11:58:33.562Z,101173.52
2018-12-17T12:01:02.908Z,101224.98
2018-12-17T12:03:32.255Z,101230.52
2018-12-17T12:06:00.531Z,101236.25
2018-12-17T12:08:28.820Z,101232.66
2018-12-17T12:10:57.094Z,101234.81
2018-12-17T12:13:25.471Z,101236.99
2018-12-17T12:15:53.752Z,101222.26
2018-12-17T12:18:22.120Z,101238.41
2018-12-17T12:20:50.506Z,101233.41
2018-12-17T12:23:18.812Z,101239.31
2018-12-17T12:25:47.085Z,101231.89
2018-12-17T12:28:15.365Z,101247.48
2018-12-17T12:30:43.712Z,101238.88
2018-12-17T12:33:12.009Z,101228.29
2018-12-17T12:35:40.322Z,101219.41
2018-12-17T12:38:08.871Z,101214.95
2018-12-17T12:40:37.369Z,101217.39
2018-12-17T12:43:05.628Z,101224.48
2018-12-17T12:45:33.910Z,101232.98
2018-12-17T12:48:02.210Z,101229.44
2018-12-17T12:50:30.492Z,101245.45
2018-12-17T12:52:58.784Z,101237.56
2018-12-17T12:55:27.214Z,101246.72
2018-12-17T12:57:55.496Z,101253.40
2018-12-17T13:00:23.772Z,101259.39
2018-12-17T13:02:52.072Z,101266.88
2018-12-17T13:05:20.350Z,101269.02
2018-12-17T13:07:48.642Z,101277.11
2018-12-17T13:10:16.897Z,101283.17
2018-12-17T13:12:45.188Z,101287.20
2018-12-17T13:15:13.580Z,101254.66
2018-12-17T13:17:41.868Z,101289.34
2018-12-17T13:20:10.326Z,101297.87
2018-12-17T13:22:38.638Z,101303.92
2018-12-17T13:25:09.632Z,101315.45
2018-12-17T13:27:37.905Z,101317.31
2018-12-17T13:30:08.239Z,101315.14
2018-12-17T13:32:36.529Z,101329.09
2018-12-17T13:35:05.568Z,101327.97
2018-12-17T13:37:33.842Z,101329.33
2018-12-17T13:40:02.127Z,101338.89
2018-12-17T13:42:30.488Z,101332.73
2018-12-17T13:44:58.752Z,101337.70
2018-12-17T13:47:27.052Z,101338.52
2018-12-17T13:49:57.320Z,101334.06
2018-12-17T13:52:31.102Z,101337.20
2018-12-17T13:54:59.366Z,101348.79
2018-12-17T13:57:27.709Z,101336.38
2018-12-17T13:59:55.990Z,101350.62
2018-12-17T14:02:24.278Z,101340.52
2018-12-17T14:04:52.563Z,101359.68
2018-12-17T14:07:20.932Z,101359.22
2018-12-17T14:09:54.916Z,101352.03
2018-12-17T14:12:23.577Z,101368.37
2018-12-17T14:14:51.863Z,101361.91
2018-12-17T14:17:25.618Z,101362.50
2018-12-17T14:19:59.482Z,101358.63
2018-12-17T14:22:27.752Z,101364.96
2018-12-17T14:24:56.056Z,101365.64
2018-12-17T14:27:24.333Z,101377.52
2018-12-17T14:29:52.861Z,101376.47
2018-12-17T14:32:21.163Z,101385.02
2018-12-17T14:34:49.452Z,101380.34
2018-12-17T14:37:17.756Z,101389.06
2018-12-17T14:39:46.030Z,101400.72
2018-12-17T14:42:14.333Z,101404.31
2018-12-17T14:44:42.606Z,101404.31
2018-12-17T14:47:11.014Z,101401.41
2018-12-17T14:49:39.273Z,101413.33
2018-12-17T14:52:07.636Z,101415.74
2018-12-17T14:54:35.903Z,101422.61
2018-12-17T14:57:04.269Z,101432.03
2018-12-17T14:59:32.537Z,101430.70
2018-12-17T15:02:00.836Z,101440.41
2018-12-17T15:04:29.133Z,101447.81
2018-12-17T15:06:57.422Z,101450.51
2018-12-17T15:09:25.873Z,101457.97
2018-12-17T15:11:54.172Z,101461.84
2018-12-17T15:14:22.612Z,101469.08
2018-12-17T15:16:50.916Z,101469.17
2018-12-17T15:19:19.181Z,101466.33
2018-12-17T15:21:47.505Z,101457.55
2018-12-17T15:24:16.458Z,101468.97
2018-12-17T15:26:44.880Z,101471.38
2018-12-17T15:29:13.169Z,101479.95
2018-12-17T15:31:43.243Z,101480.72
2018-12-17T15:34:11.761Z,101484.80
2018-12-17T15:36:40.728Z,101491.58
2018-12-17T15:39:09.298Z,101506.00
2018-12-17T15:41:37.604Z,101508.82
2018-12-17T15:44:05.872Z,101503.02
2018-12-17T15:46:34.391Z,101509.71
2018-12-17T15:49:02.752Z,101509.61
2018-12-17T15:51:31.024Z,101516.76
2018-12-17T15:53:59.317Z,101520.35
2018-12-17T15:56:27.580Z,101528.91
2018-12-17T15:58:55.885Z,101530.16
2018-12-17T16:01:24.170Z,101531.84
2018-12-17T16:03:52.525Z,101546.27
2018-12-17T16:06:20.912Z,101556.33
2018-12-17T16:08:49.285Z,101561.23
2018-12-17T16:11:17.581Z,101564.66
2018-12-17T16:13:45.864Z,101566.64
2018-12-17T16:16:14.133Z,101577.57
2018-12-17T16:18:42.474Z,101570.48
2018-12-17T16:21:10.780Z,101583.81
2018-12-17T16:23:39.078Z,101582.49
2018-12-17T16:26:07.379Z,101588.43
2018-12-17T16:28:35.672Z,101594.25
2018-12-17T16:31:04.015Z,101597.55
2018-12-17T16:33:32.328Z,101597.84
2018-12-17T16:36:00.624Z,101597.84
2018-12-17T16:38:29.117Z,101609.55
2018-12-17T16:40:57.406Z,101607.28
2018-12-17T16:43:25.684Z,101609.80
2018-12-17T16:45:54.011Z,101610.66
2018-12-17T16:48:23.523Z,101617.45
2018-12-17T16:50:51.835Z,101619.68
2018-12-17T16:53:20.209Z,101620.45
2018-12-17T16:55:48.538Z,101627.13
2018-12-17T16:58:16.804Z,101623.55
2018-12-17T17:00:45.053Z,101632.31
2018-12-17T17:03:13.326Z,101633.91
2018-12-17T17:05:41.605Z,101632.76
2018-12-17T17:08:09.898Z,101638.78
2018-12-17T17:10:38.426Z,101632.33
2018-12-17T17:13:06.667Z,101641.81
2018-12-17T17:15:35.111Z,101647.63
2018-12-17T17:18:03.406Z,101642.64
2018-12-17T17:20:31.677Z,101632.82
2018-12-17T17:22:59.985Z,101651.13
2018-12-17T17:25:28.258Z,101654.41
2018-12-17T17:27:56.581Z,101659.10
2018-12-17T17:30:24.874Z,101657.41
2018-12-17T17:32:53.186Z,101660.59
2018-12-17T17:35:21.489Z,101659.27
2018-12-17T17:37:49.845Z,101663.10
2018-12-17T17:40:18.141Z,101666.88
2018-12-17T17:42:46.446Z,101669.66
2018-12-17T17:45:14.731Z,101674.11
2018-12-17T17:47:43.084Z,101681.50
2018-12-17T17:50:11.362Z,101681.69
2018-12-17T17:52:39.673Z,101683.59
2018-12-17T17:55:07.985Z,101680.84
2018-12-17T17:57:36.574Z,101684.08
2018-12-17T18:00:08.170Z,101688.08
2018-12-17T18:02:36.518Z,101694.59
2018-12-17T18:05:05.770Z,101701.73
2018-12-17T18:07:34.041Z,101697.19
2018-12-17T18:10:04.308Z,101695.80
2018-12-17T18:12:32.584Z,101700.02
2018-12-17T18:15:00.896Z,101703.19
2018-12-17T18:17:29.200Z,101709.02
2018-12-17T18:19:57.503Z,101712.02
2018-12-17T18:22:25.797Z,101718.83
2018-12-17T18:24:54.111Z,101714.55
2018-12-17T18:27:22.448Z,101718.57
2018-12-17T18:29:50.749Z,101723.88
2018-12-17T18:32:25.749Z,101723.34
2018-12-17T18:34:49.353Z,101725.30
2018-12-17T18:37:17.665Z,101724.14
2018-12-17T18:39:45.940Z,101736.20
2018-12-17T18:42:14.237Z,101736.84
2018-12-17T18:44:42.572Z,101747.91
2018-12-17T18:47:10.867Z,101747.08
2018-12-17T18:49:39.166Z,101755.66
2018-12-17T18:52:07.613Z,101754.80
2018-12-17T18:54:35.886Z,101761.38
2018-12-17T18:57:04.250Z,101761.38
2018-12-17T18:59:32.542Z,101767.59
2018-12-17T19:02:00.865Z,101767.70
2018-12-17T19:04:29.137Z,101767.33
2018-12-17T19:06:57.441Z,101773.45
2018-12-17T19:09:25.788Z,101779.36
2018-12-17T19:11:54.109Z,101775.03
2018-12-17T19:14:22.439Z,101780.15
2018-12-17T19:16:50.757Z,101781.43
2018-12-17T19:19:19.036Z,101785.41
2018-12-17T19:21:47.400Z,101786.84
2018-12-17T19:24:15.934Z,101790.23
2018-12-17T19:26:44.406Z,101788.58
2018-12-17T19:29:12.691Z,101796.13
2018-12-17T19:31:40.991Z,101789.63
2018-12-17T19:34:09.303Z,101789.05
2018-12-17T19:36:37.595Z,101790.84
2018-12-17T19:39:07.014Z,101801.06
2018-12-17T19:41:35.283Z,101794.59
2018-12-17T19:44:03.591Z,101798.44
2018-12-17T19:46:31.861Z,101803.88
2018-12-17T19:49:00.152Z,101799.00
2018-12-17T19:51:28.513Z,101804.11
2018-12-17T19:53:57.241Z,101809.37
2018-12-17T19:56:26.074Z,101804.23
2018-12-17T19:58:54.348Z,101810.71
2018-12-17T20:01:22.710Z,101808.69
2018-12-17T20:03:50.942Z,101814.10
2018-12-17T20:06:19.233Z,101817.67
2018-12-17T20:08:47.656Z,101811.95
2018-12-17T20:11:15.999Z,101819.22
2018-12-17T20:13:44.269Z,101820.75
2018-12-17T20:16:12.560Z,101825.26
2018-12-17T20:18:40.894Z,101829.89
2018-12-17T20:21:09.247Z,101834.78
2018-12-17T20:23:37.525Z,101825.44
2018-12-17T20:26:05.823Z,101826.25
2018-12-17T20:28:34.114Z,101825.49
2018-12-17T20:31:02.412Z,101830.45
2018-12-17T20:33:30.716Z,101825.56
2018-12-17T20:35:59.004Z,101832.70
2018-12-17T20:38:27.313Z,101838.98
2018-12-17T20:40:55.976Z,101843.06
2018-12-17T20:43:25.715Z,101842.16
2018-12-17T20:45:54.014Z,101845.69
2018-12-17T20:48:22.301Z,101844.62
2018-12-17T20:50:51.060Z,101853.58
2018-12-17T20:53:19.314Z,101854.28
2018-12-17T20:55:47.584Z,101854.77
2018-12-17T20:58:15.893Z,101855.59
2018-12-17T21:00:44.175Z,101854.70
2018-12-17T21:03:12.476Z,101858.78
2018-12-17T21:05:41.831Z,101863.91
2018-12-17T21:08:10.562Z,101862.28
2018-12-17T21:10:38.848Z,101859.27
2018-12-17T21:13:07.120Z,101856.64
2018-12-17T21:15:35.426Z,101863.11
2018-12-17T21:18:03.817Z,101862.91
2018-12-17T21:20:32.319Z,101857.89
2018-12-17T21:23:00.605Z,101860.52
2018-12-17T21:25:28.897Z,101850.77
2018-12-17T21:27:57.218Z,101853.39
2018-12-17T21:30:25.859Z,101859.91
2018-12-17T21:32:54.366Z,101856.27
2018-12-17T21:35:22.642Z,101855.13
2018-12-17T21:37:50.932Z,101860.77
2018-12-17T21:40:19.200Z,101866.34
2018-12-17T21:42:47.504Z,101868.14
2018-12-17T21:45:15.823Z,101870.28
2018-12-17T21:47:44.123Z,101872.84
2018-12-17T22:05:25.900Z,101876.02
2018-12-17T22:07:54.185Z,101885.70
2018-12-17T22:10:25.445Z,101893.19
2018-12-17T22:12:53.735Z,101894.82
2018-12-17T22:15:22.025Z,101897.75
2018-12-17T22:17:50.349Z,101899.23
2018-12-17T22:20:18.836Z,101906.73
2018-12-17T22:22:47.109Z,101906.20
2018-12-17T22:25:15.412Z,101909.59
2018-12-17T22:27:43.678Z,101917.02
2018-12-17T22:30:12.054Z,101915.39
2018-12-17T22:32:40.363Z,101910.20
2018-12-17T22:35:08.715Z,101913.52
2018-12-17T22:37:37.015Z,101915.84
2018-12-17T22:40:06.468Z,101912.00
2018-12-17T22:42:35.320Z,101917.26
2018-12-17T22:45:04.636Z,101917.78
2018-12-17T22:47:32.943Z,101920.33
2018-12-17T22:50:01.531Z,101916.70
2018-12-17T22:52:29.823Z,101912.92
2018-12-17T22:54:58.093Z,101905.27
2018-12-17T22:57:26.415Z,101909.73
2018-12-17T22:59:54.805Z,101910.05
2018-12-17T23:02:23.167Z,101909.66
2018-12-17T23:04:51.473Z,101901.77
2018-12-17T23:07:19.793Z,101902.18
2018-12-17T23:10:00.007Z,101910.81
2018-12-17T23:12:40.071Z,101908.10
2018-12-17T23:15:20.110Z,101907.42
2018-12-17T23:17:47.957Z,101904.55
2018-12-17T23:20:17.715Z,101905.55
2018-12-17T23:22:46.518Z,101905.26
2018-12-17T23:25:14.784Z,101902.78
2018-12-17T23:27:47.457Z,101906.66
2018-12-17T23:30:16.564Z,101901.15
2018-12-17T23:32:44.884Z,101914.30
2018-12-17T23:35:13.521Z,101907.89
2018-12-17T23:37:41.890Z,101905.09
2018-12-17T23:40:10.370Z,101907.47
2018-12-17T23:42:38.854Z,101895.58
2018-12-17T23:45:07.293Z,101895.64
2018-12-17T23:47:35.572Z,101894.41
2018-12-17T23:50:05.525Z,101889.02
2018-12-17T23:52:33.856Z,101888.63
2018-12-17T23:55:02.340Z,101881.96
2018-12-17T23:57:30.620Z,101886.85
2018-12-17T23:59:58.974Z,101877.27
